sensor_id;sensor_type;location;lat;lon;timestamp;P1;durP1;ratioP1;P2;durP2;ratioP2
20888;SDS011;10604;51.976;7.594;2023-04-03T00:00:22;3.70;;;1.67;;
20888;SDS011;10604;51.976;7.594;2023-04-03T00:02:47;3.70;;;1.60;;
20888;SDS011;10604;51.976;7.594;2023-04-03T00:05:13;3.20;;;1.77;;
20888;SDS011;10604;51.976;7.594;2023-04-03T00:07:38;3.17;;;1.60;;
20888;SDS011;10604;51.976;7.594;2023-04-03T00:10:04;4.13;;;1.80;;
20888;SDS011;10604;51.976;7.594;2023-04-03T00:12:30;4.10;;;1.70;;
20888;SDS011;10604;51.976;7.594;2023-04-03T00:14:55;3.23;;;1.60;;
20888;SDS011;10604;51.976;7.594;2023-04-03T00:17:20;3.60;;;1.80;;
20888;SDS011;10604;51.976;7.594;2023-04-03T00:19:46;3.17;;;1.50;;
20888;SDS011;10604;51.976;7.594;2023-04-03T00:22:11;4.87;;;1.70;;
20888;SDS011;10604;51.976;7.594;2023-04-03T00:24:37;3.53;;;1.80;;
20888;SDS011;10604;51.976;7.594;2023-04-03T00:27:02;4.07;;;1.75;;
20888;SDS011;10604;51.976;7.594;2023-04-03T00:29:27;5.80;;;1.90;;
20888;SDS011;10604;51.976;7.594;2023-04-03T00:31:53;3.87;;;1.40;;
20888;SDS011;10604;51.976;7.594;2023-04-03T00:34:18;2.50;;;1.60;;
20888;SDS011;10604;51.976;7.594;2023-04-03T00:36:44;3.17;;;1.60;;
20888;SDS011;10604;51.976;7.594;2023-04-03T00:39:10;4.28;;;1.63;;
20888;SDS011;10604;51.976;7.594;2023-04-03T00:41:35;4.83;;;1.57;;
20888;SDS011;10604;51.976;7.594;2023-04-03T00:44:16;3.77;;;1.63;;
20888;SDS011;10604;51.976;7.594;2023-04-03T00:46:46;3.42;;;1.55;;
20888;SDS011;10604;51.976;7.594;2023-04-03T00:49:12;3.27;;;1.70;;
20888;SDS011;10604;51.976;7.594;2023-04-03T00:51:40;4.83;;;1.83;;
20888;SDS011;10604;51.976;7.594;2023-04-03T00:54:06;4.35;;;1.73;;
20888;SDS011;10604;51.976;7.594;2023-04-03T00:56:33;4.33;;;1.80;;
20888;SDS011;10604;51.976;7.594;2023-04-03T00:59:02;2.87;;;1.80;;
20888;SDS011;10604;51.976;7.594;2023-04-03T01:01:31;4.10;;;1.45;;
20888;SDS011;10604;51.976;7.594;2023-04-03T01:03:58;3.77;;;1.50;;
20888;SDS011;10604;51.976;7.594;2023-04-03T01:06:26;3.42;;;1.80;;
20888;SDS011;10604;51.976;7.594;2023-04-03T01:08:55;3.33;;;1.70;;
20888;SDS011;10604;51.976;7.594;2023-04-03T01:11:21;5.80;;;1.83;;
20888;SDS011;10604;51.976;7.594;2023-04-03T01:13:47;3.97;;;1.60;;
20888;SDS011;10604;51.976;7.594;2023-04-03T01:16:14;3.38;;;1.80;;
20888;SDS011;10604;51.976;7.594;2023-04-03T01:18:39;3.73;;;2.10;;
20888;SDS011;10604;51.976;7.594;2023-04-03T01:26:58;3.50;;;1.80;;
20888;SDS011;10604;51.976;7.594;2023-04-03T01:29:26;4.93;;;1.83;;
20888;SDS011;10604;51.976;7.594;2023-04-03T01:31:52;3.67;;;1.88;;
20888;SDS011;10604;51.976;7.594;2023-04-03T01:34:21;5.47;;;1.75;;
20888;SDS011;10604;51.976;7.594;2023-04-03T01:36:47;4.03;;;1.52;;
20888;SDS011;10604;51.976;7.594;2023-04-03T01:39:12;4.17;;;1.70;;
20888;SDS011;10604;51.976;7.594;2023-04-03T01:41:38;2.97;;;1.65;;
20888;SDS011;10604;51.976;7.594;2023-04-03T01:44:03;3.07;;;1.63;;
20888;SDS011;10604;51.976;7.594;2023-04-03T01:46:29;3.33;;;1.60;;
20888;SDS011;10604;51.976;7.594;2023-04-03T01:48:55;2.33;;;1.60;;
20888;SDS011;10604;51.976;7.594;2023-04-03T01:51:21;3.55;;;1.60;;
20888;SDS011;10604;51.976;7.594;2023-04-03T01:53:46;4.70;;;1.90;;
20888;SDS011;10604;51.976;7.594;2023-04-03T01:56:11;4.57;;;1.90;;
20888;SDS011;10604;51.976;7.594;2023-04-03T01:58:37;3.77;;;1.70;;
20888;SDS011;10604;51.976;7.594;2023-04-03T02:01:02;3.25;;;1.58;;
20888;SDS011;10604;51.976;7.594;2023-04-03T02:03:28;3.17;;;1.83;;
20888;SDS011;10604;51.976;7.594;2023-04-03T02:05:53;4.57;;;1.60;;
20888;SDS011;10604;51.976;7.594;2023-04-03T02:08:18;3.70;;;1.90;;
20888;SDS011;10604;51.976;7.594;2023-04-03T02:10:46;4.00;;;1.63;;
20888;SDS011;10604;51.976;7.594;2023-04-03T02:13:13;3.58;;;1.70;;
20888;SDS011;10604;51.976;7.594;2023-04-03T02:15:38;3.83;;;1.80;;
20888;SDS011;10604;51.976;7.594;2023-04-03T02:18:04;3.87;;;1.83;;
20888;SDS011;10604;51.976;7.594;2023-04-03T02:20:30;4.30;;;1.83;;
20888;SDS011;10604;51.976;7.594;2023-04-03T02:22:55;3.73;;;1.80;;
20888;SDS011;10604;51.976;7.594;2023-04-03T02:25:20;4.27;;;1.60;;
20888;SDS011;10604;51.976;7.594;2023-04-03T02:27:46;4.80;;;1.95;;
20888;SDS011;10604;51.976;7.594;2023-04-03T02:30:11;4.33;;;1.80;;
20888;SDS011;10604;51.976;7.594;2023-04-03T02:32:37;3.95;;;1.85;;
20888;SDS011;10604;51.976;7.594;2023-04-03T02:35:03;3.53;;;1.57;;
20888;SDS011;10604;51.976;7.594;2023-04-03T02:37:28;4.00;;;1.65;;
20888;SDS011;10604;51.976;7.594;2023-04-03T02:39:54;3.45;;;1.67;;
20888;SDS011;10604;51.976;7.594;2023-04-03T02:42:20;3.60;;;1.80;;
20888;SDS011;10604;51.976;7.594;2023-04-03T02:44:45;4.43;;;1.90;;
20888;SDS011;10604;51.976;7.594;2023-04-03T02:47:11;2.88;;;1.40;;
20888;SDS011;10604;51.976;7.594;2023-04-03T02:49:36;5.03;;;1.70;;
20888;SDS011;10604;51.976;7.594;2023-04-03T02:52:02;4.07;;;1.90;;
20888;SDS011;10604;51.976;7.594;2023-04-03T02:54:27;3.33;;;1.77;;
20888;SDS011;10604;51.976;7.594;2023-04-03T02:56:55;5.15;;;1.80;;
20888;SDS011;10604;51.976;7.594;2023-04-03T02:59:20;4.40;;;1.70;;
20888;SDS011;10604;51.976;7.594;2023-04-03T03:01:46;5.90;;;1.83;;
20888;SDS011;10604;51.976;7.594;2023-04-03T03:04:11;6.77;;;1.80;;
20888;SDS011;10604;51.976;7.594;2023-04-03T03:06:37;4.28;;;1.70;;
20888;SDS011;10604;51.976;7.594;2023-04-03T03:09:02;3.10;;;1.63;;
20888;SDS011;10604;51.976;7.594;2023-04-03T03:11:28;5.55;;;1.75;;
20888;SDS011;10604;51.976;7.594;2023-04-03T03:13:54;6.80;;;1.85;;
20888;SDS011;10604;51.976;7.594;2023-04-03T03:16:20;4.20;;;1.88;;
20888;SDS011;10604;51.976;7.594;2023-04-03T03:18:46;5.03;;;1.80;;
20888;SDS011;10604;51.976;7.594;2023-04-03T03:21:11;2.87;;;1.50;;
20888;SDS011;10604;51.976;7.594;2023-04-03T03:23:36;5.22;;;1.90;;
20888;SDS011;10604;51.976;7.594;2023-04-03T03:26:03;4.73;;;1.67;;
20888;SDS011;10604;51.976;7.594;2023-04-03T03:28:30;4.05;;;1.80;;
20888;SDS011;10604;51.976;7.594;2023-04-03T03:30:57;5.97;;;1.85;;
20888;SDS011;10604;51.976;7.594;2023-04-03T03:33:22;2.72;;;1.60;;
20888;SDS011;10604;51.976;7.594;2023-04-03T03:35:48;5.50;;;1.77;;
20888;SDS011;10604;51.976;7.594;2023-04-03T03:38:14;4.72;;;1.83;;
20888;SDS011;10604;51.976;7.594;2023-04-03T03:40:39;4.83;;;1.97;;
20888;SDS011;10604;51.976;7.594;2023-04-03T03:43:04;4.07;;;1.67;;
20888;SDS011;10604;51.976;7.594;2023-04-03T03:45:30;4.07;;;1.60;;
20888;SDS011;10604;51.976;7.594;2023-04-03T03:47:56;4.05;;;1.77;;
20888;SDS011;10604;51.976;7.594;2023-04-03T03:50:21;4.53;;;2.00;;
20888;SDS011;10604;51.976;7.594;2023-04-03T03:52:47;4.25;;;2.17;;
20888;SDS011;10604;51.976;7.594;2023-04-03T03:55:12;3.60;;;1.90;;
20888;SDS011;10604;51.976;7.594;2023-04-03T03:57:38;5.67;;;2.07;;
20888;SDS011;10604;51.976;7.594;2023-04-03T04:00:03;5.65;;;1.92;;
20888;SDS011;10604;51.976;7.594;2023-04-03T04:02:30;6.32;;;3.38;;
20888;SDS011;10604;51.976;7.594;2023-04-03T04:04:55;6.10;;;3.43;;
20888;SDS011;10604;51.976;7.594;2023-04-03T04:07:20;6.20;;;2.72;;
20888;SDS011;10604;51.976;7.594;2023-04-03T04:09:46;4.13;;;2.13;;
20888;SDS011;10604;51.976;7.594;2023-04-03T04:12:11;4.77;;;2.20;;
20888;SDS011;10604;51.976;7.594;2023-04-03T04:14:37;4.73;;;2.37;;
20888;SDS011;10604;51.976;7.594;2023-04-03T04:17:02;5.18;;;2.25;;
20888;SDS011;10604;51.976;7.594;2023-04-03T04:19:28;3.60;;;2.10;;
20888;SDS011;10604;51.976;7.594;2023-04-03T04:21:53;4.35;;;2.03;;
20888;SDS011;10604;51.976;7.594;2023-04-03T04:24:19;5.53;;;2.17;;
20888;SDS011;10604;51.976;7.594;2023-04-03T04:26:44;4.80;;;2.20;;
20888;SDS011;10604;51.976;7.594;2023-04-03T04:29:10;5.32;;;2.13;;
20888;SDS011;10604;51.976;7.594;2023-04-03T04:31:36;4.60;;;2.13;;
20888;SDS011;10604;51.976;7.594;2023-04-03T04:34:01;4.18;;;1.83;;
20888;SDS011;10604;51.976;7.594;2023-04-03T04:36:26;4.43;;;1.73;;
20888;SDS011;10604;51.976;7.594;2023-04-03T04:38:52;5.80;;;2.30;;
20888;SDS011;10604;51.976;7.594;2023-04-03T04:41:19;5.03;;;1.90;;
20888;SDS011;10604;51.976;7.594;2023-04-03T04:43:47;6.28;;;2.17;;
20888;SDS011;10604;51.976;7.594;2023-04-03T04:46:16;4.53;;;1.70;;
20888;SDS011;10604;51.976;7.594;2023-04-03T04:48:42;5.10;;;2.17;;
20888;SDS011;10604;51.976;7.594;2023-04-03T04:51:07;4.43;;;2.35;;
20888;SDS011;10604;51.976;7.594;2023-04-03T04:53:33;8.00;;;3.53;;
20888;SDS011;10604;51.976;7.594;2023-04-03T04:55:58;7.77;;;3.70;;
20888;SDS011;10604;51.976;7.594;2023-04-03T04:58:24;7.13;;;3.92;;
20888;SDS011;10604;51.976;7.594;2023-04-03T05:00:57;4.47;;;2.58;;
20888;SDS011;10604;51.976;7.594;2023-04-03T05:03:23;5.38;;;2.17;;
20888;SDS011;10604;51.976;7.594;2023-04-03T05:05:49;3.53;;;2.00;;
20888;SDS011;10604;51.976;7.594;2023-04-03T05:08:14;4.43;;;1.87;;
20888;SDS011;10604;51.976;7.594;2023-04-03T05:10:40;6.55;;;2.17;;
20888;SDS011;10604;51.976;7.594;2023-04-03T05:13:06;6.55;;;2.08;;
20888;SDS011;10604;51.976;7.594;2023-04-03T05:15:31;3.27;;;1.90;;
20888;SDS011;10604;51.976;7.594;2023-04-03T05:17:57;5.50;;;2.20;;
20888;SDS011;10604;51.976;7.594;2023-04-03T05:20:22;9.40;;;2.30;;
20888;SDS011;10604;51.976;7.594;2023-04-03T05:22:47;6.47;;;2.45;;
20888;SDS011;10604;51.976;7.594;2023-04-03T05:25:13;6.03;;;2.17;;
20888;SDS011;10604;51.976;7.594;2023-04-03T05:27:39;5.47;;;2.07;;
20888;SDS011;10604;51.976;7.594;2023-04-03T05:30:04;4.75;;;2.22;;
20888;SDS011;10604;51.976;7.594;2023-04-03T05:32:30;4.45;;;2.03;;
20888;SDS011;10604;51.976;7.594;2023-04-03T05:34:56;4.60;;;2.20;;
20888;SDS011;10604;51.976;7.594;2023-04-03T05:37:21;6.37;;;2.00;;
20888;SDS011;10604;51.976;7.594;2023-04-03T05:39:46;4.90;;;2.10;;
20888;SDS011;10604;51.976;7.594;2023-04-03T05:42:12;4.45;;;1.70;;
20888;SDS011;10604;51.976;7.594;2023-04-03T05:44:38;4.45;;;2.05;;
20888;SDS011;10604;51.976;7.594;2023-04-03T05:47:04;4.90;;;2.20;;
20888;SDS011;10604;51.976;7.594;2023-04-03T05:49:30;4.40;;;2.03;;
20888;SDS011;10604;51.976;7.594;2023-04-03T05:51:55;6.07;;;2.33;;
20888;SDS011;10604;51.976;7.594;2023-04-03T05:54:27;5.18;;;1.85;;
20888;SDS011;10604;51.976;7.594;2023-04-03T05:56:54;6.35;;;2.20;;
20888;SDS011;10604;51.976;7.594;2023-04-03T05:59:20;4.43;;;2.20;;
20888;SDS011;10604;51.976;7.594;2023-04-03T06:01:46;4.82;;;1.92;;
20888;SDS011;10604;51.976;7.594;2023-04-03T06:04:12;4.25;;;2.20;;
20888;SDS011;10604;51.976;7.594;2023-04-03T06:06:56;5.55;;;1.98;;
20888;SDS011;10604;51.976;7.594;2023-04-03T06:09:26;5.95;;;2.83;;
20888;SDS011;10604;51.976;7.594;2023-04-03T06:11:53;4.38;;;2.30;;
20888;SDS011;10604;51.976;7.594;2023-04-03T06:14:19;4.85;;;2.40;;
20888;SDS011;10604;51.976;7.594;2023-04-03T06:16:44;5.50;;;3.47;;
20888;SDS011;10604;51.976;7.594;2023-04-03T06:19:10;7.53;;;5.10;;
20888;SDS011;10604;51.976;7.594;2023-04-03T06:21:37;4.20;;;2.55;;
20888;SDS011;10604;51.976;7.594;2023-04-03T06:24:03;6.10;;;2.17;;
20888;SDS011;10604;51.976;7.594;2023-04-03T06:26:29;4.55;;;2.10;;
20888;SDS011;10604;51.976;7.594;2023-04-03T06:28:55;5.15;;;2.15;;
20888;SDS011;10604;51.976;7.594;2023-04-03T06:31:21;5.00;;;2.17;;
20888;SDS011;10604;51.976;7.594;2023-04-03T06:33:47;5.13;;;2.13;;
20888;SDS011;10604;51.976;7.594;2023-04-03T06:36:12;5.57;;;2.10;;
20888;SDS011;10604;51.976;7.594;2023-04-03T06:38:38;6.32;;;2.28;;
20888;SDS011;10604;51.976;7.594;2023-04-03T06:41:04;4.23;;;2.07;;
20888;SDS011;10604;51.976;7.594;2023-04-03T06:43:29;5.68;;;2.20;;
20888;SDS011;10604;51.976;7.594;2023-04-03T06:45:56;5.40;;;2.38;;
20888;SDS011;10604;51.976;7.594;2023-04-03T06:48:22;5.57;;;2.40;;
20888;SDS011;10604;51.976;7.594;2023-04-03T06:50:47;6.53;;;2.20;;
20888;SDS011;10604;51.976;7.594;2023-04-03T06:53:12;3.43;;;1.97;;
20888;SDS011;10604;51.976;7.594;2023-04-03T06:55:38;6.20;;;2.17;;
20888;SDS011;10604;51.976;7.594;2023-04-03T06:58:04;4.53;;;1.90;;
20888;SDS011;10604;51.976;7.594;2023-04-03T07:00:29;2.92;;;1.75;;
20888;SDS011;10604;51.976;7.594;2023-04-03T07:02:55;4.60;;;2.03;;
20888;SDS011;10604;51.976;7.594;2023-04-03T07:05:22;4.77;;;1.73;;
20888;SDS011;10604;51.976;7.594;2023-04-03T07:07:48;5.47;;;2.05;;
20888;SDS011;10604;51.976;7.594;2023-04-03T07:10:14;3.60;;;1.90;;
20888;SDS011;10604;51.976;7.594;2023-04-03T07:12:40;5.22;;;1.75;;
20888;SDS011;10604;51.976;7.594;2023-04-03T07:15:06;5.35;;;3.13;;
20888;SDS011;10604;51.976;7.594;2023-04-03T07:17:32;4.03;;;1.83;;
20888;SDS011;10604;51.976;7.594;2023-04-03T07:19:57;3.55;;;1.73;;
20888;SDS011;10604;51.976;7.594;2023-04-03T07:22:23;6.70;;;1.80;;
20888;SDS011;10604;51.976;7.594;2023-04-03T07:24:48;4.68;;;2.17;;
20888;SDS011;10604;51.976;7.594;2023-04-03T07:27:14;3.93;;;2.07;;
20888;SDS011;10604;51.976;7.594;2023-04-03T07:29:39;3.57;;;1.90;;
20888;SDS011;10604;51.976;7.594;2023-04-03T07:32:05;6.18;;;2.53;;
20888;SDS011;10604;51.976;7.594;2023-04-03T07:34:31;5.35;;;2.47;;
20888;SDS011;10604;51.976;7.594;2023-04-03T07:36:57;5.95;;;1.80;;
20888;SDS011;10604;51.976;7.594;2023-04-03T07:39:23;5.80;;;1.70;;
20888;SDS011;10604;51.976;7.594;2023-04-03T07:41:49;4.88;;;1.80;;
20888;SDS011;10604;51.976;7.594;2023-04-03T07:44:14;4.53;;;1.90;;
20888;SDS011;10604;51.976;7.594;2023-04-03T07:46:40;3.43;;;1.53;;
20888;SDS011;10604;51.976;7.594;2023-04-03T07:49:05;4.78;;;1.80;;
20888;SDS011;10604;51.976;7.594;2023-04-03T07:51:31;4.13;;;1.90;;
20888;SDS011;10604;51.976;7.594;2023-04-03T07:53:57;2.95;;;1.75;;
20888;SDS011;10604;51.976;7.594;2023-04-03T07:56:23;3.83;;;1.80;;
20888;SDS011;10604;51.976;7.594;2023-04-03T07:58:50;6.00;;;1.90;;
20888;SDS011;10604;51.976;7.594;2023-04-03T08:01:15;4.87;;;1.70;;
20888;SDS011;10604;51.976;7.594;2023-04-03T08:03:40;4.37;;;1.60;;
20888;SDS011;10604;51.976;7.594;2023-04-03T08:06:07;5.28;;;1.80;;
20888;SDS011;10604;51.976;7.594;2023-04-03T08:08:33;3.67;;;1.63;;
20888;SDS011;10604;51.976;7.594;2023-04-03T08:10:59;3.40;;;1.30;;
20888;SDS011;10604;51.976;7.594;2023-04-03T08:13:27;3.40;;;1.55;;
20888;SDS011;10604;51.976;7.594;2023-04-03T08:15:53;3.95;;;1.45;;
20888;SDS011;10604;51.976;7.594;2023-04-03T08:18:18;2.87;;;1.33;;
20888;SDS011;10604;51.976;7.594;2023-04-03T08:20:46;3.28;;;1.42;;
20888;SDS011;10604;51.976;7.594;2023-04-03T08:23:12;5.03;;;1.60;;
20888;SDS011;10604;51.976;7.594;2023-04-03T08:25:39;3.90;;;1.42;;
20888;SDS011;10604;51.976;7.594;2023-04-03T08:28:06;3.37;;;1.40;;
20888;SDS011;10604;51.976;7.594;2023-04-03T08:30:32;2.78;;;1.40;;
20888;SDS011;10604;51.976;7.594;2023-04-03T08:33:00;3.08;;;1.67;;
20888;SDS011;10604;51.976;7.594;2023-04-03T08:35:26;2.47;;;1.30;;
20888;SDS011;10604;51.976;7.594;2023-04-03T08:37:52;2.63;;;1.30;;
20888;SDS011;10604;51.976;7.594;2023-04-03T08:40:17;3.20;;;1.27;;
20888;SDS011;10604;51.976;7.594;2023-04-03T08:45:45;2.67;;;1.42;;
20888;SDS011;10604;51.976;7.594;2023-04-03T08:48:17;5.68;;;1.60;;
20888;SDS011;10604;51.976;7.594;2023-04-03T08:50:47;2.88;;;1.23;;
20888;SDS011;10604;51.976;7.594;2023-04-03T08:53:16;4.22;;;1.30;;
20888;SDS011;10604;51.976;7.594;2023-04-03T08:55:46;2.60;;;1.20;;
20888;SDS011;10604;51.976;7.594;2023-04-03T08:58:15;3.05;;;1.38;;
20888;SDS011;10604;51.976;7.594;2023-04-03T09:03:43;2.97;;;1.20;;
20888;SDS011;10604;51.976;7.594;2023-04-03T09:09:07;3.13;;;1.20;;
20888;SDS011;10604;51.976;7.594;2023-04-03T09:11:44;2.90;;;1.30;;
20888;SDS011;10604;51.976;7.594;2023-04-03T09:17:42;2.50;;;1.20;;
20888;SDS011;10604;51.976;7.594;2023-04-03T09:23:26;2.10;;;1.17;;
20888;SDS011;10604;51.976;7.594;2023-04-03T09:26:03;3.40;;;1.10;;
20888;SDS011;10604;51.976;7.594;2023-04-03T09:28:34;2.30;;;1.17;;
20888;SDS011;10604;51.976;7.594;2023-04-03T09:31:06;2.67;;;1.15;;
20888;SDS011;10604;51.976;7.594;2023-04-03T09:33:43;3.35;;;1.23;;
20888;SDS011;10604;51.976;7.594;2023-04-03T09:36:10;2.63;;;1.20;;
20888;SDS011;10604;51.976;7.594;2023-04-03T09:38:36;3.23;;;1.20;;
20888;SDS011;10604;51.976;7.594;2023-04-03T09:43:33;2.42;;;1.20;;
20888;SDS011;10604;51.976;7.594;2023-04-03T09:49:04;2.70;;;1.20;;
20888;SDS011;10604;51.976;7.594;2023-04-03T09:51:30;2.05;;;1.23;;
20888;SDS011;10604;51.976;7.594;2023-04-03T09:53:56;2.15;;;1.23;;
20888;SDS011;10604;51.976;7.594;2023-04-03T10:01:30;2.25;;;1.10;;
20888;SDS011;10604;51.976;7.594;2023-04-03T10:04:05;2.50;;;1.17;;
20888;SDS011;10604;51.976;7.594;2023-04-03T10:06:44;1.60;;;1.00;;
20888;SDS011;10604;51.976;7.594;2023-04-03T10:09:19;2.55;;;1.02;;
20888;SDS011;10604;51.976;7.594;2023-04-03T10:11:57;1.77;;;1.02;;
20888;SDS011;10604;51.976;7.594;2023-04-03T10:14:35;3.33;;;1.20;;
20888;SDS011;10604;51.976;7.594;2023-04-03T10:19:48;2.25;;;1.00;;
20888;SDS011;10604;51.976;7.594;2023-04-03T10:28:10;1.88;;;0.95;;
20888;SDS011;10604;51.976;7.594;2023-04-03T10:30:52;1.80;;;1.00;;
20888;SDS011;10604;51.976;7.594;2023-04-03T10:36:38;2.60;;;1.20;;
20888;SDS011;10604;51.976;7.594;2023-04-03T10:42:13;2.28;;;1.00;;
20888;SDS011;10604;51.976;7.594;2023-04-03T10:58:02;2.72;;;1.20;;
20888;SDS011;10604;51.976;7.594;2023-04-03T11:03:14;2.50;;;1.08;;
20888;SDS011;10604;51.976;7.594;2023-04-03T11:05:48;1.87;;;1.13;;
20888;SDS011;10604;51.976;7.594;2023-04-03T11:10:44;1.83;;;1.00;;
20888;SDS011;10604;51.976;7.594;2023-04-03T11:13:17;2.67;;;1.20;;
20888;SDS011;10604;51.976;7.594;2023-04-03T11:15:48;2.97;;;1.20;;
20888;SDS011;10604;51.976;7.594;2023-04-03T11:18:19;3.25;;;1.30;;
20888;SDS011;10604;51.976;7.594;2023-04-03T11:21:33;2.80;;;1.20;;
20888;SDS011;10604;51.976;7.594;2023-04-03T11:23:46;3.92;;;1.20;;
20888;SDS011;10604;51.976;7.594;2023-04-03T11:26:17;3.10;;;1.10;;
20888;SDS011;10604;51.976;7.594;2023-04-03T11:28:43;2.85;;;1.17;;
20888;SDS011;10604;51.976;7.594;2023-04-03T11:36:50;1.92;;;1.00;;
20888;SDS011;10604;51.976;7.594;2023-04-03T11:39:30;1.98;;;0.90;;
20888;SDS011;10604;51.976;7.594;2023-04-03T11:42:14;1.77;;;1.10;;
20888;SDS011;10604;51.976;7.594;2023-04-03T11:44:42;2.53;;;1.02;;
20888;SDS011;10604;51.976;7.594;2023-04-03T11:47:09;1.93;;;1.00;;
20888;SDS011;10604;51.976;7.594;2023-04-03T11:49:56;2.53;;;1.20;;
20888;SDS011;10604;51.976;7.594;2023-04-03T11:58:37;3.38;;;1.08;;
20888;SDS011;10604;51.976;7.594;2023-04-03T12:05:53;3.13;;;1.37;;
20888;SDS011;10604;51.976;7.594;2023-04-03T12:16:18;2.58;;;1.20;;
20888;SDS011;10604;51.976;7.594;2023-04-03T12:21:15;2.90;;;1.23;;
20888;SDS011;10604;51.976;7.594;2023-04-03T12:24:00;3.35;;;0.95;;
20888;SDS011;10604;51.976;7.594;2023-04-03T12:26:41;2.95;;;1.20;;
20888;SDS011;10604;51.976;7.594;2023-04-03T12:40:50;1.98;;;1.10;;
20888;SDS011;10604;51.976;7.594;2023-04-03T12:46:25;4.28;;;1.00;;
20888;SDS011;10604;51.976;7.594;2023-04-03T12:48:58;3.92;;;1.17;;
20888;SDS011;10604;51.976;7.594;2023-04-03T12:51:34;2.67;;;1.10;;
20888;SDS011;10604;51.976;7.594;2023-04-03T12:54:14;3.60;;;1.40;;
20888;SDS011;10604;51.976;7.594;2023-04-03T12:56:44;2.63;;;1.27;;
20888;SDS011;10604;51.976;7.594;2023-04-03T12:59:23;3.40;;;1.30;;
20888;SDS011;10604;51.976;7.594;2023-04-03T13:01:55;3.40;;;1.30;;
20888;SDS011;10604;51.976;7.594;2023-04-03T13:04:25;4.00;;;1.40;;
20888;SDS011;10604;51.976;7.594;2023-04-03T13:06:52;3.10;;;1.40;;
20888;SDS011;10604;51.976;7.594;2023-04-03T13:09:19;1.83;;;1.20;;
20888;SDS011;10604;51.976;7.594;2023-04-03T13:11:56;3.65;;;1.30;;
20888;SDS011;10604;51.976;7.594;2023-04-03T13:14:26;2.30;;;1.20;;
20888;SDS011;10604;51.976;7.594;2023-04-03T13:17:00;2.15;;;1.10;;
20888;SDS011;10604;51.976;7.594;2023-04-03T13:19:31;3.93;;;1.40;;
20888;SDS011;10604;51.976;7.594;2023-04-03T13:21:58;2.55;;;1.10;;
20888;SDS011;10604;51.976;7.594;2023-04-03T13:24:30;2.95;;;1.25;;
20888;SDS011;10604;51.976;7.594;2023-04-03T13:26:58;2.83;;;1.40;;
20888;SDS011;10604;51.976;7.594;2023-04-03T13:29:28;3.22;;;1.30;;
20888;SDS011;10604;51.976;7.594;2023-04-03T13:31:56;2.60;;;1.27;;
20888;SDS011;10604;51.976;7.594;2023-04-03T13:34:24;3.17;;;1.38;;
20888;SDS011;10604;51.976;7.594;2023-04-03T13:41:48;2.35;;;1.45;;
20888;SDS011;10604;51.976;7.594;2023-04-03T13:46:47;3.78;;;1.40;;
20888;SDS011;10604;51.976;7.594;2023-04-03T13:49:21;4.13;;;1.38;;
20888;SDS011;10604;51.976;7.594;2023-04-03T13:51:53;2.87;;;1.17;;
20888;SDS011;10604;51.976;7.594;2023-04-03T13:54:21;2.72;;;1.35;;
20888;SDS011;10604;51.976;7.594;2023-04-03T13:56:54;3.05;;;1.45;;
20888;SDS011;10604;51.976;7.594;2023-04-03T13:59:24;3.73;;;1.87;;
20888;SDS011;10604;51.976;7.594;2023-04-03T14:04:25;2.87;;;1.20;;
20888;SDS011;10604;51.976;7.594;2023-04-03T14:06:53;3.00;;;1.33;;
20888;SDS011;10604;51.976;7.594;2023-04-03T14:09:19;3.00;;;1.40;;
20888;SDS011;10604;51.976;7.594;2023-04-03T14:11:47;4.07;;;1.35;;
20888;SDS011;10604;51.976;7.594;2023-04-03T14:14:17;3.70;;;1.40;;
20888;SDS011;10604;51.976;7.594;2023-04-03T14:16:52;2.87;;;1.23;;
20888;SDS011;10604;51.976;7.594;2023-04-03T14:19:24;4.53;;;1.40;;
20888;SDS011;10604;51.976;7.594;2023-04-03T14:21:54;2.65;;;1.23;;
20888;SDS011;10604;51.976;7.594;2023-04-03T14:24:21;3.47;;;1.20;;
20888;SDS011;10604;51.976;7.594;2023-04-03T14:26:48;2.20;;;1.20;;
20888;SDS011;10604;51.976;7.594;2023-04-03T14:29:18;4.40;;;1.30;;
20888;SDS011;10604;51.976;7.594;2023-04-03T14:31:45;2.53;;;1.20;;
20888;SDS011;10604;51.976;7.594;2023-04-03T14:34:14;2.50;;;1.20;;
20888;SDS011;10604;51.976;7.594;2023-04-03T14:36:41;2.60;;;1.20;;
20888;SDS011;10604;51.976;7.594;2023-04-03T14:39:08;4.18;;;1.40;;
20888;SDS011;10604;51.976;7.594;2023-04-03T14:41:41;2.25;;;1.23;;
20888;SDS011;10604;51.976;7.594;2023-04-03T14:44:07;3.60;;;1.30;;
20888;SDS011;10604;51.976;7.594;2023-04-03T14:46:37;2.78;;;1.40;;
20888;SDS011;10604;51.976;7.594;2023-04-03T14:49:12;2.30;;;1.25;;
20888;SDS011;10604;51.976;7.594;2023-04-03T14:51:45;3.38;;;1.23;;
20888;SDS011;10604;51.976;7.594;2023-04-03T14:54:15;2.45;;;1.40;;
20888;SDS011;10604;51.976;7.594;2023-04-03T14:56:43;2.40;;;1.20;;
20888;SDS011;10604;51.976;7.594;2023-04-03T14:59:11;2.72;;;1.30;;
20888;SDS011;10604;51.976;7.594;2023-04-03T15:01:38;3.67;;;1.83;;
20888;SDS011;10604;51.976;7.594;2023-04-03T15:04:11;4.57;;;1.50;;
20888;SDS011;10604;51.976;7.594;2023-04-03T15:06:38;3.00;;;1.60;;
20888;SDS011;10604;51.976;7.594;2023-04-03T15:09:04;3.42;;;1.10;;
20888;SDS011;10604;51.976;7.594;2023-04-03T15:11:29;2.67;;;1.30;;
20888;SDS011;10604;51.976;7.594;2023-04-03T15:13:54;3.23;;;1.40;;
20888;SDS011;10604;51.976;7.594;2023-04-03T15:16:20;2.47;;;1.35;;
20888;SDS011;10604;51.976;7.594;2023-04-03T15:18:46;2.42;;;1.17;;
20888;SDS011;10604;51.976;7.594;2023-04-03T15:21:12;3.00;;;1.30;;
20888;SDS011;10604;51.976;7.594;2023-04-03T15:23:37;2.70;;;1.20;;
20888;SDS011;10604;51.976;7.594;2023-04-03T15:26:03;3.53;;;1.30;;
20888;SDS011;10604;51.976;7.594;2023-04-03T15:28:30;2.80;;;1.20;;
20888;SDS011;10604;51.976;7.594;2023-04-03T15:30:57;2.33;;;1.40;;
20888;SDS011;10604;51.976;7.594;2023-04-03T15:33:23;3.72;;;1.48;;
20888;SDS011;10604;51.976;7.594;2023-04-03T15:35:49;2.60;;;1.35;;
20888;SDS011;10604;51.976;7.594;2023-04-03T15:38:14;2.70;;;1.40;;
20888;SDS011;10604;51.976;7.594;2023-04-03T15:40:40;3.57;;;1.40;;
20888;SDS011;10604;51.976;7.594;2023-04-03T15:43:06;2.53;;;1.15;;
20888;SDS011;10604;51.976;7.594;2023-04-03T15:45:32;3.47;;;1.48;;
20888;SDS011;10604;51.976;7.594;2023-04-03T15:48:00;3.78;;;1.58;;
20888;SDS011;10604;51.976;7.594;2023-04-03T15:50:26;4.10;;;1.80;;
20888;SDS011;10604;51.976;7.594;2023-04-03T15:52:52;2.28;;;1.20;;
20888;SDS011;10604;51.976;7.594;2023-04-03T15:55:23;3.25;;;1.30;;
20888;SDS011;10604;51.976;7.594;2023-04-03T15:57:51;3.42;;;1.30;;
20888;SDS011;10604;51.976;7.594;2023-04-03T16:00:17;3.28;;;1.40;;
20888;SDS011;10604;51.976;7.594;2023-04-03T16:02:43;3.25;;;1.52;;
20888;SDS011;10604;51.976;7.594;2023-04-03T16:05:10;2.88;;;1.35;;
20888;SDS011;10604;51.976;7.594;2023-04-03T16:07:37;2.20;;;1.30;;
20888;SDS011;10604;51.976;7.594;2023-04-03T16:10:04;3.93;;;1.93;;
20888;SDS011;10604;51.976;7.594;2023-04-03T16:12:31;2.45;;;1.55;;
20888;SDS011;10604;51.976;7.594;2023-04-03T16:14:56;3.53;;;1.43;;
20888;SDS011;10604;51.976;7.594;2023-04-03T16:17:21;2.47;;;1.47;;
20888;SDS011;10604;51.976;7.594;2023-04-03T16:19:47;2.88;;;1.40;;
20888;SDS011;10604;51.976;7.594;2023-04-03T16:22:13;2.40;;;1.30;;
20888;SDS011;10604;51.976;7.594;2023-04-03T16:24:38;3.23;;;1.53;;
20888;SDS011;10604;51.976;7.594;2023-04-03T16:27:04;2.88;;;1.42;;
20888;SDS011;10604;51.976;7.594;2023-04-03T16:29:29;4.70;;;1.43;;
20888;SDS011;10604;51.976;7.594;2023-04-03T16:31:55;3.08;;;1.25;;
20888;SDS011;10604;51.976;7.594;2023-04-03T16:34:21;2.33;;;1.40;;
20888;SDS011;10604;51.976;7.594;2023-04-03T16:36:47;3.55;;;1.50;;
20888;SDS011;10604;51.976;7.594;2023-04-03T16:39:13;2.63;;;1.20;;
20888;SDS011;10604;51.976;7.594;2023-04-03T16:41:38;3.23;;;1.30;;
20888;SDS011;10604;51.976;7.594;2023-04-03T16:44:05;2.88;;;1.30;;
20888;SDS011;10604;51.976;7.594;2023-04-03T16:46:32;4.13;;;1.50;;